createdAt,value
2017-05-28T00:00:15.797Z,50.26
2017-05-28T00:00:41.934Z,49.77
2017-05-28T00:01:08.036Z,49.29
2017-05-28T00:01:34.129Z,49.1
2017-05-28T00:02:00.266Z,49.39
2017-05-28T00:02:26.393Z,49.49
2017-05-28T00:02:52.532Z,49.49
2017-05-28T00:03:18.665Z,49.49
2017-05-28T00:03:44.775Z,49.97
2017-05-28T00:04:10.894Z,49.95
2017-05-28T00:04:36.999Z,49.95
2017-05-28T00:05:03.135Z,49.77
2017-05-28T00:05:29.227Z,49.56
2017-05-28T00:05:55.353Z,50.04
2017-05-28T00:06:21.461Z,50.04
2017-05-28T00:06:47.560Z,49.77
2017-05-28T00:07:13.675Z,49.77
2017-05-28T00:07:39.790Z,50.07
2017-05-28T00:08:05.916Z,49.97
2017-05-28T00:08:32.009Z,49.58
2017-05-28T00:08:58.144Z,50.16
2017-05-28T00:09:24.274Z,49.77
2017-05-28T00:09:50.427Z,49.77
2017-05-28T00:10:16.521Z,49.97
2017-05-28T00:10:42.637Z,49.68
2017-05-28T00:11:08.774Z,49.87
2017-05-28T00:11:34.901Z,49.68
2017-05-28T00:12:00.994Z,49.68
2017-05-28T00:12:27.185Z,49.87
2017-05-28T00:12:53.371Z,49.87
2017-05-28T00:13:19.516Z,49.49
2017-05-28T00:13:45.650Z,49.19
2017-05-28T00:14:11.816Z,49.29
2017-05-28T00:14:37.935Z,49.19
2017-05-28T00:15:04.087Z,49
2017-05-28T00:15:30.210Z,49.29
2017-05-28T00:15:56.319Z,49.29
2017-05-28T00:16:22.449Z,49
2017-05-28T00:16:48.566Z,49.29
2017-05-28T00:17:14.725Z,49
2017-05-28T00:17:40.841Z,49.29
2017-05-28T00:18:06.925Z,49.1
2017-05-28T00:18:33.053Z,49.19
2017-05-28T00:18:59.215Z,49.1
2017-05-28T00:19:25.307Z,49
2017-05-28T00:19:51.434Z,49.19
2017-05-28T00:20:17.570Z,49.1
2017-05-28T00:20:43.691Z,49.1
2017-05-28T00:21:09.798Z,48.93
2017-05-28T00:21:35.889Z,49.29
2017-05-28T00:22:02.014Z,49.19
2017-05-28T00:22:28.152Z,49.19
2017-05-28T00:22:54.244Z,49.29
2017-05-28T00:23:20.341Z,49.19
2017-05-28T00:23:46.452Z,49.29
2017-05-28T00:24:12.549Z,49.39
2017-05-28T00:24:38.688Z,49.1
2017-05-28T00:25:04.887Z,49.49
2017-05-28T00:25:30.988Z,49
2017-05-28T00:25:57.083Z,49.19
2017-05-28T00:26:23.192Z,49.39
2017-05-28T00:26:49.289Z,49.19
2017-05-28T00:27:15.423Z,49.19
2017-05-28T00:27:41.518Z,49
2017-05-28T00:28:07.611Z,49.29
2017-05-28T00:28:33.725Z,49.49
2017-05-28T00:28:59.825Z,49.19
2017-05-28T00:29:25.943Z,49.49
2017-05-28T00:29:52.105Z,49.58
2017-05-28T00:30:18.235Z,49.58
2017-05-28T00:30:44.379Z,49.58
2017-05-28T00:31:10.484Z,49.49
2017-05-28T00:31:36.621Z,49.19
2017-05-28T00:32:02.744Z,49.19
2017-05-28T00:32:28.844Z,49.19
2017-05-28T00:32:54.941Z,49.19
2017-05-28T00:33:21.104Z,49.19
2017-05-28T00:33:47.208Z,49.49
2017-05-28T00:34:13.325Z,49.77
2017-05-28T00:34:39.505Z,49.68
2017-05-28T00:35:05.670Z,49.87
2017-05-28T00:35:31.769Z,49.77
2017-05-28T00:35:57.869Z,50.07
2017-05-28T00:36:23.979Z,49.68
2017-05-28T00:36:50.100Z,49.77
2017-05-28T00:37:16.198Z,50.45
2017-05-28T00:37:42.299Z,50.72
2017-05-28T00:38:08.429Z,50.45
2017-05-28T00:38:34.566Z,49.87
2017-05-28T00:39:00.657Z,49.68
2017-05-28T00:39:26.785Z,50.26
2017-05-28T00:39:52.922Z,50.45
2017-05-28T00:40:19.017Z,49.87
2017-05-28T00:40:45.117Z,49.77
2017-05-28T00:41:11.224Z,49.85
2017-05-28T00:41:37.344Z,49.85
2017-05-28T00:42:03.431Z,50.52
2017-05-28T00:42:29.570Z,50.43
2017-05-28T00:42:55.700Z,50.72
2017-05-28T00:43:21.832Z,51.1
2017-05-28T00:43:47.925Z,50.82
2017-05-28T00:44:14.098Z,51.1
2017-05-28T00:44:40.261Z,50.6
2017-05-28T00:45:06.385Z,50.98
2017-05-28T00:45:32.554Z,51.47
2017-05-28T00:45:58.692Z,51.47
2017-05-28T00:46:24.815Z,51.66
2017-05-28T00:46:50.910Z,51.95
2017-05-28T00:47:17.017Z,51.56
2017-05-28T00:47:43.121Z,51.95
2017-05-28T00:48:09.237Z,51.76
2017-05-28T00:48:35.371Z,52.05
2017-05-28T00:49:01.508Z,51.95
2017-05-28T00:49:27.598Z,51.47
2017-05-28T00:49:53.725Z,51.86
2017-05-28T00:50:19.888Z,52.63
2017-05-28T00:50:46.084Z,53.19
2017-05-28T00:51:12.209Z,52.99
2017-05-28T00:51:38.346Z,53.19
2017-05-28T00:52:04.469Z,53.28
2017-05-28T00:52:30.588Z,53.09
2017-05-28T00:52:56.753Z,52.89
2017-05-28T00:53:22.874Z,53.83
2017-05-28T00:53:49.017Z,53.83
2017-05-28T00:54:15.154Z,53.55
2017-05-28T00:54:41.276Z,54.03
2017-05-28T00:55:07.413Z,53.93
2017-05-28T00:55:33.538Z,54.13
2017-05-28T00:55:59.653Z,54.13
2017-05-28T00:56:25.768Z,54.13
2017-05-28T00:56:51.898Z,54.61
2017-05-28T00:57:18.016Z,54.71
2017-05-28T00:57:44.124Z,54.41
2017-05-28T00:58:10.256Z,54.22
2017-05-28T00:58:36.401Z,54.22
2017-05-28T00:59:02.559Z,54.61
2017-05-28T00:59:28.694Z,54.71
2017-05-28T00:59:54.863Z,54.71
2017-05-28T01:00:20.991Z,54.41
2017-05-28T01:00:47.136Z,54.61
2017-05-28T01:01:13.273Z,54.22
2017-05-28T01:01:39.377Z,54.22
2017-05-28T01:02:05.495Z,54.32
2017-05-28T01:02:31.631Z,54.22
2017-05-28T01:02:57.740Z,54.61
2017-05-28T01:03:23.833Z,54.22
2017-05-28T01:03:49.956Z,54.51
2017-05-28T01:04:16.089Z,54.51
2017-05-28T01:04:42.201Z,54.8
2017-05-28T01:05:08.301Z,55.16
2017-05-28T01:05:34.453Z,54.9
2017-05-28T01:06:00.587Z,55.07
2017-05-28T01:06:26.694Z,55.16
2017-05-28T01:06:52.837Z,55.16
2017-05-28T01:07:18.985Z,55.16
2017-05-28T01:07:45.094Z,55.35
2017-05-28T01:08:11.205Z,55.45
2017-05-28T01:08:37.331Z,55.93
2017-05-28T01:09:03.494Z,56.13
2017-05-28T01:09:29.613Z,56.32
2017-05-28T01:09:55.756Z,55.83
2017-05-28T01:10:21.895Z,55.83
2017-05-28T01:10:48.021Z,56.03
2017-05-28T01:11:14.128Z,56.13
2017-05-28T01:11:40.223Z,55.35
2017-05-28T01:12:06.348Z,55.55
2017-05-28T01:12:32.484Z,55.55
2017-05-28T01:12:58.609Z,55.26
2017-05-28T01:13:24.702Z,55.16
2017-05-28T01:13:50.865Z,55.38
2017-05-28T01:14:16.990Z,55.38
2017-05-28T01:14:43.082Z,55.09
2017-05-28T01:15:09.191Z,55.09
2017-05-28T01:15:35.320Z,55.09
2017-05-28T01:16:01.439Z,54.99
2017-05-28T01:16:27.570Z,54.9
2017-05-28T01:16:53.661Z,54.9
2017-05-28T01:17:19.827Z,54.9
2017-05-28T01:17:45.928Z,54.51
2017-05-28T01:18:12.093Z,54.61
2017-05-28T01:18:38.204Z,55.09
2017-05-28T01:19:04.363Z,55.19
2017-05-28T01:19:30.527Z,55.09
2017-05-28T01:19:56.660Z,55.29
2017-05-28T01:20:22.770Z,54.9
2017-05-28T01:20:48.885Z,54.9
2017-05-28T01:21:15.009Z,54.99
2017-05-28T01:21:41.174Z,54.93
2017-05-28T01:22:07.266Z,55.11
2017-05-28T01:22:33.371Z,55.02
2017-05-28T01:22:59.488Z,54.63
2017-05-28T01:23:25.619Z,54.25
2017-05-28T01:23:51.727Z,54.05
2017-05-28T01:24:17.869Z,53.57
2017-05-28T01:24:43.999Z,54.15
2017-05-28T01:25:10.110Z,54.15
2017-05-28T01:25:36.204Z,53.57
2017-05-28T01:26:02.302Z,54.25
2017-05-28T01:26:28.439Z,53.67
2017-05-28T01:26:54.565Z,53.47
2017-05-28T01:27:20.684Z,54.35
2017-05-28T01:27:46.788Z,53.86
2017-05-28T01:28:12.891Z,54.44
2017-05-28T01:28:39.028Z,53.96
2017-05-28T01:29:05.147Z,53.96
2017-05-28T01:29:31.271Z,53.57
2017-05-28T01:29:57.407Z,53.67
2017-05-28T01:30:23.533Z,53.47
2017-05-28T01:30:49.649Z,53.57
2017-05-28T01:31:15.811Z,53.38
2017-05-28T01:31:41.938Z,54.05
2017-05-28T01:32:08.031Z,53.96
2017-05-28T01:32:34.143Z,53.86
2017-05-28T01:33:00.272Z,53.77
2017-05-28T01:33:26.365Z,53.86
2017-05-28T01:33:52.576Z,54.05
2017-05-28T01:34:18.681Z,53.77
2017-05-28T01:34:44.799Z,53.86
2017-05-28T01:35:10.974Z,53.28
2017-05-28T01:35:37.082Z,53.09
2017-05-28T01:36:03.176Z,53.19
2017-05-28T01:36:29.275Z,53.19
2017-05-28T01:36:55.385Z,52.99
2017-05-28T01:37:21.481Z,53.38
2017-05-28T01:37:47.602Z,53.47
2017-05-28T01:38:13.710Z,53.77
2017-05-28T01:38:39.838Z,53.86
2017-05-28T01:39:05.945Z,53.28
2017-05-28T01:39:32.069Z,54.15
2017-05-28T01:39:58.218Z,54.05
2017-05-28T01:40:24.353Z,53.28
2017-05-28T01:40:50.476Z,53.86
2017-05-28T01:41:16.567Z,53.67
2017-05-28T01:41:42.679Z,53.86
2017-05-28T01:42:08.805Z,53.67
2017-05-28T01:42:34.922Z,53.77
2017-05-28T01:43:01.080Z,53.96
2017-05-28T01:43:27.183Z,53.96
2017-05-28T01:43:53.300Z,53.86
2017-05-28T01:44:19.431Z,54.05
2017-05-28T01:44:45.545Z,54.25
2017-05-28T01:45:11.656Z,54.73
2017-05-28T01:45:37.806Z,54.71
2017-05-28T01:46:03.944Z,54.73
2017-05-28T01:46:30.052Z,54.53
2017-05-28T01:46:56.155Z,54.41
2017-05-28T01:47:22.271Z,54.73
2017-05-28T01:47:48.405Z,54.73
2017-05-28T01:48:14.512Z,54.53
2017-05-28T01:48:40.628Z,54.63
2017-05-28T01:49:06.732Z,54.93
2017-05-28T01:49:32.897Z,54.25
2017-05-28T01:49:59.015Z,54.05
2017-05-28T01:50:25.145Z,54.35
2017-05-28T01:50:51.262Z,54.15
2017-05-28T01:51:17.382Z,54.25
2017-05-28T01:51:43.619Z,54.05
2017-05-28T01:52:09.734Z,53.67
2017-05-28T01:52:35.839Z,53.96
2017-05-28T01:53:01.976Z,53.86
2017-05-28T01:53:28.118Z,53.86
2017-05-28T01:53:54.218Z,54.05
2017-05-28T01:54:20.357Z,53.86
2017-05-28T01:54:46.478Z,53.96
2017-05-28T01:55:12.569Z,54.05
2017-05-28T01:55:38.730Z,53.57
2017-05-28T01:56:04.835Z,54.15
2017-05-28T01:56:31.241Z,53.57
2017-05-28T01:56:57.334Z,54.15
2017-05-28T01:57:23.455Z,54.73
2017-05-28T01:57:49.618Z,54.35
2017-05-28T01:58:15.739Z,53.86
2017-05-28T01:58:41.855Z,54.05
2017-05-28T01:59:07.992Z,53.86
2017-05-28T01:59:34.092Z,54.15
2017-05-28T02:00:00.208Z,54.15
2017-05-28T02:00:26.315Z,53.77
2017-05-28T02:00:52.414Z,54.15
2017-05-28T02:01:18.517Z,53.77
2017-05-28T02:01:44.614Z,53.77
2017-05-28T02:02:10.703Z,53.47
2017-05-28T02:02:36.815Z,53.77
2017-05-28T02:03:02.943Z,53.96
2017-05-28T02:03:29.092Z,54.05
2017-05-28T02:03:55.243Z,54.05
2017-05-28T02:04:21.403Z,54.05
2017-05-28T02:04:47.496Z,54.83
2017-05-28T02:05:13.601Z,54.83
2017-05-28T02:05:39.737Z,54.73
2017-05-28T02:06:05.854Z,54.53
2017-05-28T02:06:31.955Z,54.25
2017-05-28T02:06:58.081Z,54.15
2017-05-28T02:07:24.189Z,54.35
2017-05-28T02:07:50.319Z,54.05
2017-05-28T02:08:16.411Z,54.08
2017-05-28T02:08:42.515Z,54.15
2017-05-28T02:09:08.680Z,54.93
2017-05-28T02:09:34.845Z,54.93
2017-05-28T02:10:00.975Z,54.25
2017-05-28T02:10:27.085Z,54.05
2017-05-28T02:10:53.177Z,54.05
2017-05-28T02:11:19.277Z,54.35
2017-05-28T02:11:45.438Z,54.44
2017-05-28T02:12:11.553Z,54.25
2017-05-28T02:12:37.663Z,54.83
2017-05-28T02:13:03.774Z,54.44
2017-05-28T02:13:29.876Z,54.83
2017-05-28T02:13:56.013Z,54.15
2017-05-28T02:14:22.136Z,54.63
2017-05-28T02:14:48.308Z,54.73
2017-05-28T02:15:14.417Z,54.73
2017-05-28T02:15:40.538Z,54.95
2017-05-28T02:16:06.632Z,54.25
2017-05-28T02:16:32.741Z,54.83
2017-05-28T02:16:58.871Z,54.63
2017-05-28T02:17:25.013Z,54.63
2017-05-28T02:17:51.147Z,54.66
2017-05-28T02:18:17.278Z,54.93
2017-05-28T02:18:43.372Z,54.25
2017-05-28T02:19:09.507Z,54.27
2017-05-28T02:19:35.615Z,53.89
2017-05-28T02:20:01.706Z,54.05
2017-05-28T02:20:27.832Z,53.99
2017-05-28T02:20:53.941Z,54.17
2017-05-28T02:21:20.062Z,54.35
2017-05-28T02:21:46.261Z,54.05
2017-05-28T02:22:12.369Z,53.89
2017-05-28T02:22:38.466Z,53.86
2017-05-28T02:23:04.606Z,54.08
2017-05-28T02:23:30.763Z,54.17
2017-05-28T02:23:56.867Z,54.05
2017-05-28T02:24:22.977Z,54.44
2017-05-28T02:24:49.092Z,54.53
2017-05-28T02:25:15.189Z,53.96
2017-05-28T02:25:41.299Z,53.67
2017-05-28T02:26:07.476Z,54.05
2017-05-28T02:26:33.570Z,54.05
2017-05-28T02:27:00.009Z,54.05
2017-05-28T02:27:26.133Z,54.25
2017-05-28T02:27:52.227Z,54.05
2017-05-28T02:28:18.387Z,54.83
2017-05-28T02:28:44.517Z,54.44
2017-05-28T02:29:10.618Z,54.25
2017-05-28T02:29:36.715Z,54.44
2017-05-28T02:30:02.858Z,54.44
2017-05-28T02:30:28.998Z,54.53
2017-05-28T02:30:55.126Z,54.93
2017-05-28T02:31:21.292Z,54.83
2017-05-28T02:31:47.399Z,54.83
2017-05-28T02:32:13.557Z,54.93
2017-05-28T02:32:39.649Z,54.93
2017-05-28T02:33:05.809Z,54.35
2017-05-28T02:33:31.918Z,54.35
2017-05-28T02:33:58.097Z,54.44
2017-05-28T02:34:24.184Z,54.53
2017-05-28T02:34:50.277Z,54.83
2017-05-28T02:35:16.441Z,55.02
2017-05-28T02:35:42.544Z,55.02
2017-05-28T02:36:08.638Z,55.02
2017-05-28T02:36:34.773Z,54.61
2017-05-28T02:37:00.908Z,54.8
2017-05-28T02:37:27.046Z,54.83
2017-05-28T02:37:53.208Z,54.8
2017-05-28T02:38:19.259Z,55.19
2017-05-28T02:38:45.428Z,55.77
2017-05-28T02:39:11.526Z,56.05
2017-05-28T02:39:37.637Z,55.67
2017-05-28T02:40:03.730Z,56.45
2017-05-28T02:40:29.824Z,56.05
2017-05-28T02:40:55.970Z,56.15
2017-05-28T02:41:22.067Z,55.96
2017-05-28T02:41:48.155Z,56.25
2017-05-28T02:42:14.292Z,56.15
2017-05-28T02:42:40.449Z,56.05
2017-05-28T02:43:06.566Z,55.96
2017-05-28T02:43:32.698Z,55.77
2017-05-28T02:43:58.835Z,55.57
2017-05-28T02:44:24.950Z,55.57
2017-05-28T02:44:51.103Z,55.67
2017-05-28T02:45:17.242Z,55.57
2017-05-28T02:45:43.333Z,55.57
2017-05-28T02:46:09.467Z,55.57
2017-05-28T02:46:35.609Z,55.57
2017-05-28T02:47:01.715Z,55.57
2017-05-28T02:47:27.826Z,55.77
2017-05-28T02:47:53.943Z,55.29
2017-05-28T02:48:20.094Z,55.29
2017-05-28T02:48:46.204Z,55.19
2017-05-28T02:49:12.350Z,55.19
2017-05-28T02:49:38.496Z,55.57
2017-05-28T02:50:04.660Z,54.99
2017-05-28T02:50:30.750Z,55.67
2017-05-28T02:50:56.843Z,55.77
2017-05-28T02:51:22.975Z,55.29
2017-05-28T02:51:49.095Z,55.67
2017-05-28T02:52:15.231Z,55.6
2017-05-28T02:52:41.350Z,55.67
2017-05-28T02:53:07.450Z,55.57
2017-05-28T02:53:33.615Z,55.29
2017-05-28T02:53:59.709Z,55.38
2017-05-28T02:54:25.829Z,55.57
2017-05-28T02:54:51.994Z,55.67
2017-05-28T02:55:18.122Z,55.57
2017-05-28T02:55:44.263Z,56.05
2017-05-28T02:56:10.372Z,56.05
2017-05-28T02:56:36.532Z,55.09
2017-05-28T02:57:02.987Z,56.05
2017-05-28T02:57:29.138Z,56.45
2017-05-28T02:57:55.255Z,55.67
2017-05-28T02:58:21.398Z,55.87
2017-05-28T02:58:47.525Z,56.05
2017-05-28T02:59:13.621Z,56.15
2017-05-28T02:59:39.758Z,56.05
2017-05-28T03:00:05.886Z,55.77
2017-05-28T03:00:31.986Z,55.87
2017-05-28T03:00:58.091Z,56.05
2017-05-28T03:01:24.197Z,55.96
2017-05-28T03:01:50.287Z,55.77
2017-05-28T03:02:16.390Z,55.67
2017-05-28T03:02:42.528Z,56.05
2017-05-28T03:03:08.673Z,55.87
2017-05-28T03:03:34.850Z,55.87
2017-05-28T03:04:01.008Z,55.87
2017-05-28T03:04:27.103Z,55.57
2017-05-28T03:04:53.198Z,55.47
2017-05-28T03:05:19.333Z,55.47
2017-05-28T03:05:45.781Z,56.18
2017-05-28T03:06:11.899Z,56.15
2017-05-28T03:06:38.074Z,56.15
2017-05-28T03:07:04.189Z,56.05
2017-05-28T03:07:30.282Z,56.09
2017-05-28T03:07:56.415Z,55.57
2017-05-28T03:08:22.506Z,55.57
2017-05-28T03:08:48.643Z,55.89
2017-05-28T03:09:14.771Z,55.47
2017-05-28T03:09:40.935Z,56.15
2017-05-28T03:10:07.069Z,56.35
2017-05-28T03:10:33.172Z,56.35
2017-05-28T03:10:59.287Z,56.25
2017-05-28T03:11:25.394Z,55.96
2017-05-28T03:11:51.557Z,56.45
2017-05-28T03:12:17.648Z,56.15
2017-05-28T03:12:43.776Z,56.15
2017-05-28T03:13:09.940Z,56.15
2017-05-28T03:13:36.085Z,56.35
2017-05-28T03:14:02.213Z,56.25
2017-05-28T03:14:28.331Z,56.25
2017-05-28T03:14:54.466Z,56.25
2017-05-28T03:15:20.602Z,56.25
2017-05-28T03:15:46.693Z,56.37
2017-05-28T03:16:12.819Z,56.15
2017-05-28T03:16:38.928Z,56.35
2017-05-28T03:17:05.019Z,55.67
2017-05-28T03:17:31.116Z,56.09
2017-05-28T03:17:57.225Z,56.05
2017-05-28T03:18:23.351Z,56.25
2017-05-28T03:18:49.542Z,56.28
2017-05-28T03:19:15.676Z,56.18
2017-05-28T03:19:41.801Z,56.25
2017-05-28T03:20:07.937Z,55.77
2017-05-28T03:20:34.054Z,56.15
2017-05-28T03:21:00.162Z,55.96
2017-05-28T03:21:26.319Z,55.87
2017-05-28T03:21:52.438Z,56.05
2017-05-28T03:22:18.530Z,56.35
2017-05-28T03:22:44.646Z,55.96
2017-05-28T03:23:10.822Z,56.15
2017-05-28T03:23:36.967Z,56.05
2017-05-28T03:24:03.125Z,56.05
2017-05-28T03:24:29.252Z,56.05
2017-05-28T03:24:55.411Z,55.96
2017-05-28T03:25:21.533Z,56.25
2017-05-28T03:25:47.651Z,55.96
2017-05-28T03:26:13.763Z,56.25
2017-05-28T03:26:39.861Z,55.96
2017-05-28T03:27:05.978Z,55.96
2017-05-28T03:27:32.415Z,56.25
2017-05-28T03:27:58.544Z,56.05
2017-05-28T03:28:24.663Z,56.15
2017-05-28T03:28:50.840Z,55.96
2017-05-28T03:29:16.974Z,56.25
2017-05-28T03:29:43.091Z,55.96
2017-05-28T03:30:09.243Z,56.25
2017-05-28T03:30:35.366Z,56.45
2017-05-28T03:31:01.474Z,56.54
2017-05-28T03:31:27.576Z,56.37
2017-05-28T03:31:53.692Z,56.45
2017-05-28T03:32:19.824Z,56.15
2017-05-28T03:32:45.931Z,56.35
2017-05-28T03:33:12.045Z,56.28
2017-05-28T03:33:38.222Z,56.35
2017-05-28T03:34:04.357Z,56.45
2017-05-28T03:34:30.471Z,56.35
2017-05-28T03:34:56.568Z,56.15
2017-05-28T03:35:22.675Z,56.15
2017-05-28T03:35:48.798Z,56.15
2017-05-28T03:36:14.934Z,55.96
2017-05-28T03:36:41.050Z,56.57
2017-05-28T03:37:07.153Z,56.73
2017-05-28T03:37:33.318Z,56.35
2017-05-28T03:37:59.436Z,56.45
2017-05-28T03:38:25.589Z,56.28
2017-05-28T03:38:51.724Z,56.15
2017-05-28T03:39:17.822Z,56.47
2017-05-28T03:39:43.985Z,56.37
2017-05-28T03:40:10.121Z,56.67
2017-05-28T03:40:36.224Z,56.35
2017-05-28T03:41:02.316Z,56.45
2017-05-28T03:41:28.456Z,56.25
2017-05-28T03:41:54.574Z,56.15
2017-05-28T03:42:20.710Z,56.54
2017-05-28T03:42:46.830Z,56.73
2017-05-28T03:43:12.974Z,56.45
2017-05-28T03:43:39.178Z,56.54
2017-05-28T03:44:05.229Z,56.54
2017-05-28T03:44:31.371Z,56.45
2017-05-28T03:44:57.508Z,56.95
2017-05-28T03:45:23.632Z,57.03
2017-05-28T03:45:49.749Z,57.03
2017-05-28T03:46:15.854Z,57.41
2017-05-28T03:46:41.993Z,57.12
2017-05-28T03:47:08.110Z,57.03
2017-05-28T03:47:34.212Z,57.34
2017-05-28T03:48:00.324Z,57.41
2017-05-28T03:48:26.417Z,57.41
2017-05-28T03:48:52.541Z,57.31
2017-05-28T03:49:18.652Z,57.12
2017-05-28T03:49:44.801Z,57.03
2017-05-28T03:50:10.918Z,57.12
2017-05-28T03:50:37.029Z,57.41
2017-05-28T03:51:03.127Z,57.12
2017-05-28T03:51:29.220Z,57.31
2017-05-28T03:51:55.385Z,57.34
2017-05-28T03:52:21.564Z,57.12
2017-05-28T03:52:47.609Z,57.21
2017-05-28T03:53:13.705Z,57.05
2017-05-28T03:53:39.847Z,56.93
2017-05-28T03:54:06.039Z,57.03
2017-05-28T03:54:32.217Z,56.83
2017-05-28T03:54:58.359Z,57.03
2017-05-28T03:55:24.518Z,57.41
2017-05-28T03:55:50.648Z,57.31
2017-05-28T03:56:16.742Z,57.41
2017-05-28T03:56:42.848Z,57.41
2017-05-28T03:57:08.982Z,57.6
2017-05-28T03:57:35.098Z,58.18
2017-05-28T03:58:01.224Z,57.6
2017-05-28T03:58:27.343Z,57.79
2017-05-28T03:58:53.479Z,58.18
2017-05-28T03:59:19.608Z,58.37
2017-05-28T03:59:45.749Z,58.09
2017-05-28T04:00:11.906Z,58.18
2017-05-28T04:00:38.046Z,58.37
2017-05-28T04:01:04.136Z,58.25
2017-05-28T04:01:30.237Z,58.54
2017-05-28T04:01:56.347Z,58.83
2017-05-28T04:02:22.466Z,58.54
2017-05-28T04:02:48.615Z,58.73
2017-05-28T04:03:14.752Z,58.83
2017-05-28T04:03:40.904Z,58.73
2017-05-28T04:04:07.014Z,58.64
2017-05-28T04:04:33.128Z,58.73
2017-05-28T04:04:59.257Z,58.73
2017-05-28T04:05:25.394Z,59.22
2017-05-28T04:05:51.488Z,58.73
2017-05-28T04:06:17.588Z,58.73
2017-05-28T04:06:43.721Z,59.02
2017-05-28T04:07:09.819Z,59.12
2017-05-28T04:07:35.906Z,59.31
2017-05-28T04:08:02.019Z,59.41
2017-05-28T04:08:28.142Z,59.12
2017-05-28T04:08:54.258Z,59.31
2017-05-28T04:09:20.368Z,58.93
2017-05-28T04:09:46.517Z,59.22
2017-05-28T04:10:12.652Z,59.02
2017-05-28T04:10:38.775Z,59.41
2017-05-28T04:11:04.892Z,59.41
2017-05-28T04:11:31.006Z,59.12
2017-05-28T04:11:57.106Z,59.02
2017-05-28T04:12:23.223Z,59.12
2017-05-28T04:12:49.385Z,58.93
2017-05-28T04:13:15.567Z,59.6
2017-05-28T04:13:41.685Z,59.6
2017-05-28T04:14:07.815Z,59.02
2017-05-28T04:14:33.915Z,59.31
2017-05-28T04:15:00.010Z,59.6
2017-05-28T04:15:26.113Z,59.22
2017-05-28T04:15:52.225Z,59.41
2017-05-28T04:16:18.335Z,59.02
2017-05-28T04:16:44.523Z,59.41
2017-05-28T04:17:11.120Z,59.41
2017-05-28T04:17:37.174Z,59.41
2017-05-28T04:18:03.315Z,59.02
2017-05-28T04:18:29.458Z,59.12
2017-05-28T04:18:55.640Z,59.02
2017-05-28T04:19:21.778Z,59.22
2017-05-28T04:19:47.895Z,59.02
2017-05-28T04:20:14.046Z,58.64
2017-05-28T04:20:40.166Z,58.73
2017-05-28T04:21:06.510Z,58.73
2017-05-28T04:21:32.687Z,58.64
2017-05-28T04:21:58.831Z,58.83
2017-05-28T04:22:24.955Z,58.73
2017-05-28T04:22:51.065Z,58.64
2017-05-28T04:23:17.176Z,58.45
2017-05-28T04:23:43.317Z,58.25
2017-05-28T04:24:09.454Z,58.06
2017-05-28T04:24:35.601Z,57.96
2017-05-28T04:25:01.859Z,58.06
2017-05-28T04:25:27.944Z,58.15
2017-05-28T04:25:54.042Z,57.96
2017-05-28T04:26:20.148Z,58.09
2017-05-28T04:26:46.293Z,58.18
2017-05-28T04:27:12.403Z,58.28
2017-05-28T04:27:38.509Z,58.25
2017-05-28T04:28:04.636Z,58.37
2017-05-28T04:28:30.753Z,58.18
2017-05-28T04:28:56.872Z,58.28
2017-05-28T04:29:23.025Z,58.47
2017-05-28T04:29:49.168Z,58.95
2017-05-28T04:30:15.277Z,58.57
2017-05-28T04:30:41.378Z,58.86
2017-05-28T04:31:07.471Z,58.76
2017-05-28T04:31:33.602Z,58.76
2017-05-28T04:31:59.710Z,58.86
2017-05-28T04:32:25.825Z,58.57
2017-05-28T04:32:51.953Z,59.05
2017-05-28T04:33:18.115Z,59.05
2017-05-28T04:33:44.269Z,58.76
2017-05-28T04:34:10.418Z,58.67
2017-05-28T04:34:36.581Z,58.76
2017-05-28T04:35:02.704Z,58.57
2017-05-28T04:35:28.797Z,58.86
2017-05-28T04:35:54.910Z,58.95
2017-05-28T04:36:21.034Z,58.95
2017-05-28T04:36:47.150Z,58.76
2017-05-28T04:37:13.261Z,58.57
2017-05-28T04:37:39.381Z,58.57
2017-05-28T04:38:05.549Z,58.64
2017-05-28T04:38:31.671Z,58.76
2017-05-28T04:38:57.788Z,58.95
2017-05-28T04:39:23.929Z,58.95
2017-05-28T04:39:50.079Z,58.76
2017-05-28T04:40:16.194Z,58.95
2017-05-28T04:40:42.304Z,58.95
2017-05-28T04:41:08.434Z,59.15
2017-05-28T04:41:34.551Z,59.05
2017-05-28T04:42:00.657Z,58.95
2017-05-28T04:42:26.765Z,59.34
2017-05-28T04:42:52.889Z,59.25
2017-05-28T04:43:18.987Z,59.12
2017-05-28T04:43:45.133Z,59.34
2017-05-28T04:44:11.244Z,59.44
2017-05-28T04:44:37.374Z,59.05
2017-05-28T04:45:03.513Z,58.95
2017-05-28T04:45:29.647Z,59.22
2017-05-28T04:45:55.812Z,59.44
2017-05-28T04:46:21.976Z,59.05
2017-05-28T04:46:48.101Z,59.05
2017-05-28T04:47:14.208Z,59.25
2017-05-28T04:47:40.328Z,59.53
2017-05-28T04:48:06.449Z,59.34
2017-05-28T04:48:32.549Z,59.44
2017-05-28T04:48:58.681Z,59.15
2017-05-28T04:49:24.788Z,59.05
2017-05-28T04:49:50.905Z,59.34
2017-05-28T04:50:17.007Z,59.15
2017-05-28T04:50:43.117Z,58.95
2017-05-28T04:51:09.238Z,59.44
2017-05-28T04:51:35.339Z,59.34
2017-05-28T04:52:01.454Z,59.34
2017-05-28T04:52:27.545Z,59.44
2017-05-28T04:52:53.661Z,59.44
2017-05-28T04:53:19.930Z,59.34
2017-05-28T04:53:46.081Z,59.15
2017-05-28T04:54:12.208Z,59.15
2017-05-28T04:54:38.328Z,58.95
2017-05-28T04:55:04.452Z,59.34
2017-05-28T04:55:30.589Z,59.15
2017-05-28T04:55:56.684Z,59.15
2017-05-28T04:56:22.801Z,59.15
2017-05-28T04:56:48.912Z,59.05
2017-05-28T04:57:15.036Z,58.76
2017-05-28T04:57:41.131Z,59.25
2017-05-28T04:58:07.295Z,59.25
2017-05-28T04:58:33.452Z,58.76
2017-05-28T04:58:59.620Z,59.25
2017-05-28T04:59:25.726Z,59.28
2017-05-28T04:59:51.820Z,58.76
2017-05-28T05:00:17.985Z,58.98
2017-05-28T05:00:44.141Z,58.89
2017-05-28T05:01:10.236Z,58.8
2017-05-28T05:01:36.374Z,58.76
2017-05-28T05:02:02.476Z,58.89
2017-05-28T05:02:28.592Z,58.8
2017-05-28T05:02:54.702Z,58.98
2017-05-28T05:03:20.837Z,58.8
2017-05-28T05:03:46.929Z,58.98
2017-05-28T05:04:13.056Z,59.18
2017-05-28T05:04:39.167Z,58.7
2017-05-28T05:05:05.340Z,58.6
2017-05-28T05:05:31.446Z,58.6
2017-05-28T05:05:57.538Z,58.7
2017-05-28T05:06:23.643Z,58.8
2017-05-28T05:06:49.752Z,58.89
2017-05-28T05:07:15.842Z,58.8
2017-05-28T05:07:41.946Z,58.8
2017-05-28T05:08:08.053Z,58.98
2017-05-28T05:08:34.145Z,58.8
2017-05-28T05:09:00.244Z,58.7
2017-05-28T05:09:26.412Z,58.8
2017-05-28T05:09:52.509Z,58.7
2017-05-28T05:10:18.613Z,58.6
2017-05-28T05:10:44.745Z,58.6
2017-05-28T05:11:10.876Z,58.89
2017-05-28T05:11:36.985Z,58.89
2017-05-28T05:12:03.104Z,58.8
2017-05-28T05:12:29.204Z,58.7
2017-05-28T05:12:55.314Z,58.31
2017-05-28T05:13:21.437Z,58.4
2017-05-28T05:13:47.531Z,58.31
2017-05-28T05:14:13.677Z,58.12
2017-05-28T05:14:39.798Z,58.31
2017-05-28T05:15:05.916Z,58.31
2017-05-28T05:15:32.051Z,58.12
2017-05-28T05:15:58.181Z,58.02
2017-05-28T05:16:24.297Z,58.31
2017-05-28T05:16:50.404Z,58.21
2017-05-28T05:17:16.516Z,58.31
2017-05-28T05:17:42.630Z,58.4
2017-05-28T05:18:08.783Z,58.21
2017-05-28T05:18:34.892Z,58.4
2017-05-28T05:19:01.062Z,58.6
2017-05-28T05:19:27.162Z,58.02
2017-05-28T05:19:53.299Z,57.63
2017-05-28T05:20:19.422Z,58.12
2017-05-28T05:20:45.517Z,57.82
2017-05-28T05:21:11.630Z,57.73
2017-05-28T05:21:37.782Z,58.4
2017-05-28T05:22:03.910Z,58.12
2017-05-28T05:22:30.003Z,58.31
2017-05-28T05:22:56.103Z,58.21
2017-05-28T05:23:22.240Z,58.21
2017-05-28T05:23:48.438Z,58.31
2017-05-28T05:24:14.558Z,58.37
2017-05-28T05:24:40.723Z,58.09
2017-05-28T05:25:06.851Z,58.18
2017-05-28T05:25:32.968Z,58.31
2017-05-28T05:25:59.101Z,58.37
2017-05-28T05:26:25.205Z,58.28
2017-05-28T05:26:51.298Z,57.99
2017-05-28T05:27:17.425Z,58.28
2017-05-28T05:27:43.520Z,58.21
2017-05-28T05:28:09.683Z,58.31
2017-05-28T05:28:35.810Z,58.5
2017-05-28T05:29:01.928Z,57.63
2017-05-28T05:29:28.088Z,57.54
2017-05-28T05:29:54.248Z,58.31
2017-05-28T05:30:20.365Z,57.82
2017-05-28T05:30:46.472Z,58.02
2017-05-28T05:31:12.635Z,57.82
2017-05-28T05:31:38.747Z,58.12
2017-05-28T05:32:04.881Z,57.82
2017-05-28T05:32:30.990Z,58.8
2017-05-28T05:32:57.132Z,57.73
2017-05-28T05:33:23.236Z,58.09
2017-05-28T05:33:49.377Z,58.31
2017-05-28T05:34:15.534Z,58.18
2017-05-28T05:34:41.674Z,58.76
2017-05-28T05:35:07.837Z,59.25
2017-05-28T05:35:33.962Z,59.12
2017-05-28T05:36:00.068Z,58.83
2017-05-28T05:36:26.213Z,59.15
2017-05-28T05:36:52.332Z,58.93
2017-05-28T05:37:18.442Z,59.05